createdAt,value
2023-01-30T00:04:33.029Z,51.60
2023-01-30T00:07:00.054Z,54.55
2023-01-30T00:15:28.765Z,52.50
2023-01-30T00:17:57.107Z,56.53
2023-01-30T00:20:42.681Z,54.05
2023-01-30T00:32:27.139Z,63.25
2023-01-30T00:35:17.667Z,57.58
2023-01-30T00:54:27.495Z,59.45
2023-01-30T00:56:54.436Z,59.97
2023-01-30T00:59:26.077Z,60.38
2023-01-30T01:02:24.362Z,58.60
2023-01-30T01:04:52.970Z,62.63
2023-01-30T01:07:21.297Z,59.17
2023-01-30T01:31:11.105Z,53.50
2023-01-30T01:36:57.851Z,58.45
2023-01-30T01:39:24.918Z,51.85
2023-01-30T01:41:52.468Z,55.08
2023-01-30T01:51:32.192Z,56.85
2023-01-30T01:57:52.604Z,58.78
2023-01-30T02:00:21.156Z,53.55
2023-01-30T02:06:17.991Z,51.15
2023-01-30T02:08:56.175Z,46.75
2023-01-30T02:12:33.147Z,45.95
2023-01-30T02:15:01.639Z,48.00
2023-01-30T02:17:29.999Z,57.90
2023-01-30T02:20:40.007Z,47.72
2023-01-30T02:23:36.825Z,44.80
2023-01-30T02:27:02.163Z,45.22
2023-01-30T02:30:21.255Z,47.75
2023-01-30T02:33:04.211Z,47.72
2023-01-30T02:42:38.476Z,48.83
2023-01-30T02:45:47.832Z,49.00
2023-01-30T02:48:24.355Z,46.55
2023-01-30T02:51:33.233Z,45.38
2023-01-30T02:54:01.103Z,44.92
2023-01-30T02:57:25.152Z,47.13
2023-01-30T03:00:05.176Z,47.38
2023-01-30T03:02:32.346Z,43.85
2023-01-30T03:05:31.318Z,47.05
2023-01-30T03:13:23.496Z,43.30
2023-01-30T03:16:04.102Z,47.97
2023-01-30T03:18:31.565Z,43.55
2023-01-30T03:21:05.509Z,46.83
2023-01-30T03:23:32.481Z,43.17
2023-01-30T03:26:33.279Z,39.63
2023-01-30T03:29:01.552Z,43.58
2023-01-30T03:31:30.239Z,50.58
2023-01-30T03:33:57.971Z,42.05
2023-01-30T03:36:25.106Z,36.15
2023-01-30T03:38:52.555Z,36.00
2023-01-30T03:41:20.691Z,38.42
2023-01-30T03:43:47.681Z,40.70
2023-01-30T03:46:16.404Z,42.65
2023-01-30T03:48:43.501Z,39.08
2023-01-30T03:51:13.250Z,42.53
2023-01-30T03:53:40.425Z,38.58
2023-01-30T03:56:07.584Z,40.08
2023-01-30T03:58:56.177Z,39.17
2023-01-30T04:01:32.524Z,39.58
2023-01-30T04:04:00.786Z,35.45
2023-01-30T04:06:27.878Z,36.33
2023-01-30T04:08:56.278Z,35.67
2023-01-30T04:11:51.807Z,42.97
2023-01-30T04:14:19.824Z,35.80
2023-01-30T04:17:09.649Z,38.75
2023-01-30T04:20:11.985Z,35.30
2023-01-30T04:22:44.131Z,36.17
2023-01-30T04:25:12.967Z,40.30
2023-01-30T04:27:39.941Z,37.85
2023-01-30T04:30:19.606Z,43.83
2023-01-30T04:32:48.966Z,37.10
2023-01-30T04:35:17.513Z,36.38
2023-01-30T04:37:44.970Z,37.20
2023-01-30T04:40:17.105Z,44.47
2023-01-30T04:42:44.763Z,39.42
2023-01-30T04:45:37.771Z,43.67
2023-01-30T04:48:05.115Z,58.00
2023-01-30T04:50:34.624Z,50.55
2023-01-30T04:53:01.645Z,52.85
2023-01-30T04:55:28.594Z,51.85
2023-01-30T04:57:55.811Z,56.40
2023-01-30T05:00:22.812Z,55.42
2023-01-30T05:05:24.677Z,47.20
2023-01-30T05:07:51.900Z,59.80
2023-01-30T05:10:19.302Z,65.63
2023-01-30T05:12:46.464Z,61.25
2023-01-30T05:15:22.614Z,62.53
2023-01-30T05:17:49.474Z,67.32
2023-01-30T05:20:16.443Z,61.67
2023-01-30T05:22:43.445Z,67.03
2023-01-30T05:25:10.459Z,65.57
2023-01-30T05:27:37.488Z,59.90
2023-01-30T05:30:05.819Z,59.95
2023-01-30T05:32:32.851Z,67.97
2023-01-30T05:34:59.833Z,67.75
2023-01-30T05:37:26.803Z,58.28
2023-01-30T05:39:53.843Z,64.93
2023-01-30T05:42:20.784Z,58.00
2023-01-30T05:44:48.024Z,53.00
2023-01-30T05:47:15.106Z,54.40
2023-01-30T05:49:42.098Z,54.40
2023-01-30T05:52:09.154Z,50.70
2023-01-30T05:54:36.233Z,56.95
2023-01-30T05:57:03.336Z,53.63
2023-01-30T05:59:30.335Z,51.33
2023-01-30T06:01:57.460Z,49.25
2023-01-30T06:04:24.828Z,48.95
2023-01-30T06:06:51.862Z,52.00
2023-01-30T06:09:18.878Z,54.55
2023-01-30T06:11:45.879Z,44.17
2023-01-30T06:14:13.177Z,46.67
2023-01-30T06:16:40.112Z,45.53
2023-01-30T06:19:08.466Z,44.85
2023-01-30T06:21:37.949Z,40.83
2023-01-30T06:24:05.284Z,45.13
2023-01-30T06:26:32.297Z,40.55
2023-01-30T06:29:00.181Z,39.72
2023-01-30T06:31:27.625Z,43.05
2023-01-30T06:33:58.390Z,38.58
2023-01-30T06:36:26.350Z,39.00
2023-01-30T06:38:54.424Z,31.55
2023-01-30T06:41:22.161Z,34.45
2023-01-30T06:43:49.671Z,38.80
2023-01-30T06:46:16.738Z,35.50
2023-01-30T06:48:43.691Z,33.47
2023-01-30T06:51:10.872Z,33.47
2023-01-30T06:53:37.840Z,33.33
2023-01-30T06:56:04.952Z,34.67
2023-01-30T06:58:32.264Z,28.42
2023-01-30T07:00:59.712Z,31.25
2023-01-30T07:03:27.381Z,32.53
2023-01-30T07:05:54.684Z,32.75
2023-01-30T07:08:23.346Z,32.13
2023-01-30T07:10:56.749Z,30.42
2023-01-30T07:13:23.959Z,31.95
2023-01-30T07:15:53.210Z,31.05
2023-01-30T07:18:20.664Z,30.40
2023-01-30T07:20:49.527Z,30.50
2023-01-30T07:23:17.042Z,32.08
2023-01-30T07:25:47.906Z,33.45
2023-01-30T07:28:15.316Z,36.17
2023-01-30T07:30:42.643Z,40.03
2023-01-30T07:33:09.969Z,36.40
2023-01-30T07:35:38.637Z,33.38
2023-01-30T07:38:06.347Z,36.30
2023-01-30T07:40:33.955Z,35.20
2023-01-30T07:43:03.194Z,37.63
2023-01-30T07:45:42.680Z,36.97
2023-01-30T07:48:12.424Z,33.60
2023-01-30T07:50:44.623Z,38.05
2023-01-30T07:53:13.903Z,36.80
2023-01-30T07:55:41.565Z,33.28
2023-01-30T07:58:09.383Z,30.83
2023-01-30T08:00:40.386Z,23.55
2023-01-30T08:03:15.306Z,31.90
2023-01-30T08:05:42.349Z,32.28
2023-01-30T08:08:13.557Z,30.30
2023-01-30T08:10:40.546Z,29.33
2023-01-30T08:13:07.536Z,35.40
2023-01-30T08:15:34.912Z,22.80
2023-01-30T08:18:02.226Z,29.35
2023-01-30T08:20:30.058Z,25.58
2023-01-30T08:22:59.450Z,22.70
2023-01-30T08:25:26.758Z,25.83
2023-01-30T08:27:54.097Z,27.27
2023-01-30T08:30:22.873Z,25.60
2023-01-30T08:32:50.637Z,23.35
2023-01-30T08:35:18.141Z,25.25
2023-01-30T08:37:46.226Z,20.00
2023-01-30T08:40:13.745Z,25.38
2023-01-30T08:42:41.828Z,20.88
2023-01-30T08:45:15.144Z,18.95
2023-01-30T08:47:42.349Z,22.30
2023-01-30T08:50:10.141Z,21.67
2023-01-30T08:52:37.470Z,20.60
2023-01-30T08:55:04.697Z,24.30
2023-01-30T08:57:33.465Z,20.38
2023-01-30T09:00:03.007Z,20.77
2023-01-30T09:02:30.186Z,15.98
2023-01-30T09:04:57.463Z,20.33
2023-01-30T09:07:26.106Z,22.90
2023-01-30T09:09:54.626Z,17.40
2023-01-30T09:12:22.204Z,22.13
2023-01-30T09:14:49.224Z,16.15
2023-01-30T09:17:16.652Z,22.15
2023-01-30T09:19:43.656Z,19.98
2023-01-30T09:22:10.980Z,23.35
2023-01-30T09:24:37.986Z,25.40
2023-01-30T09:27:05.214Z,19.58
2023-01-30T09:29:32.342Z,23.52
2023-01-30T09:32:00.360Z,23.95
2023-01-30T09:34:29.232Z,20.73
2023-01-30T09:37:05.045Z,13.98
2023-01-30T09:39:33.409Z,21.23
2023-01-30T09:42:25.147Z,18.00
2023-01-30T09:45:03.627Z,19.47
2023-01-30T09:47:42.878Z,23.63
2023-01-30T09:50:28.996Z,18.67
2023-01-30T09:53:36.541Z,19.13
2023-01-30T09:56:04.449Z,15.32
2023-01-30T09:58:54.828Z,14.20
2023-01-30T10:01:43.721Z,11.20
2023-01-30T10:04:24.702Z,14.60
2023-01-30T10:07:05.169Z,18.67
2023-01-30T10:09:52.992Z,12.27
2023-01-30T10:12:34.150Z,16.98
2023-01-30T10:15:14.888Z,15.03
2023-01-30T10:18:16.617Z,20.17
2023-01-30T10:21:05.761Z,20.55
2023-01-30T10:24:07.159Z,22.80
2023-01-30T10:26:36.264Z,20.23
2023-01-30T10:29:11.403Z,20.52
2023-01-30T10:31:50.978Z,17.60
2023-01-30T10:34:27.449Z,16.17
2023-01-30T10:37:09.916Z,17.40
2023-01-30T10:40:06.959Z,13.63
2023-01-30T10:43:03.297Z,17.05
2023-01-30T10:45:42.642Z,19.08
2023-01-30T10:48:45.795Z,18.95
2023-01-30T10:51:44.752Z,11.85
2023-01-30T10:54:27.818Z,13.60
2023-01-30T10:57:03.338Z,18.38
2023-01-30T10:59:48.537Z,17.27
2023-01-30T11:02:34.103Z,17.38
2023-01-30T11:05:09.764Z,16.00
2023-01-30T11:07:37.169Z,14.63
2023-01-30T11:10:25.505Z,13.43
2023-01-30T11:13:13.805Z,19.90
2023-01-30T11:15:41.981Z,17.05
2023-01-30T11:21:16.512Z,19.20
2023-01-30T11:23:44.312Z,15.43
2023-01-30T11:26:32.047Z,20.45
2023-01-30T11:29:32.763Z,20.92
2023-01-30T11:32:13.197Z,14.95
2023-01-30T11:34:43.293Z,19.88
2023-01-30T11:37:15.511Z,16.00
2023-01-30T11:39:52.231Z,15.13
2023-01-30T11:42:31.267Z,17.58
2023-01-30T11:45:16.098Z,12.75
2023-01-30T11:47:59.444Z,12.85
2023-01-30T11:50:41.537Z,16.95
2023-01-30T11:53:38.579Z,18.42
2023-01-30T11:56:26.737Z,10.05
2023-01-30T11:59:00.029Z,13.52
2023-01-30T12:01:30.437Z,14.52
2023-01-30T12:03:59.015Z,16.63
2023-01-30T12:06:35.284Z,16.00
2023-01-30T12:09:04.561Z,16.25
2023-01-30T12:11:31.920Z,13.90
2023-01-30T12:14:13.321Z,15.43
2023-01-30T12:16:58.917Z,19.30
2023-01-30T12:19:57.221Z,13.40
2023-01-30T12:22:50.635Z,15.73
2023-01-30T12:25:26.023Z,13.52
2023-01-30T12:28:02.236Z,19.63
2023-01-30T12:30:36.340Z,16.15
2023-01-30T12:33:09.039Z,13.90
2023-01-30T12:36:02.201Z,14.55
2023-01-30T12:38:42.087Z,14.88
2023-01-30T12:41:42.534Z,17.35
2023-01-30T12:45:02.767Z,17.80
2023-01-30T12:47:48.387Z,9.98
2023-01-30T12:50:58.493Z,16.85
2023-01-30T12:53:51.910Z,17.25
2023-01-30T12:56:48.267Z,11.45
2023-01-30T12:59:49.123Z,19.55
2023-01-30T13:02:49.015Z,23.45
2023-01-30T13:05:22.555Z,15.90
2023-01-30T13:08:45.236Z,16.60
2023-01-30T13:11:31.362Z,20.67
2023-01-30T13:14:31.900Z,20.60
2023-01-30T13:17:13.392Z,14.98
2023-01-30T13:19:47.002Z,13.07
2023-01-30T13:22:23.053Z,10.48
2023-01-30T13:24:56.267Z,16.13
2023-01-30T13:27:25.798Z,22.60
2023-01-30T13:29:55.761Z,24.13
2023-01-30T13:32:58.785Z,21.13
2023-01-30T13:35:36.006Z,21.70
2023-01-30T13:38:05.556Z,18.30
2023-01-30T13:40:41.134Z,14.60
2023-01-30T13:43:15.398Z,15.93
2023-01-30T13:45:46.316Z,26.52
2023-01-30T13:48:27.576Z,17.60
2023-01-30T13:51:05.442Z,24.55
2023-01-30T13:53:37.253Z,21.67
2023-01-30T13:56:40.243Z,18.45
2023-01-30T13:59:41.678Z,16.45
2023-01-30T14:02:19.974Z,15.93
2023-01-30T14:04:59.115Z,16.30
2023-01-30T14:07:42.919Z,18.90
2023-01-30T14:10:11.081Z,18.15
2023-01-30T14:12:48.052Z,19.70
2023-01-30T14:15:16.721Z,18.08
2023-01-30T14:18:01.516Z,24.65
2023-01-30T14:20:37.206Z,23.90
2023-01-30T14:23:20.196Z,12.10
2023-01-30T14:25:51.846Z,12.32
2023-01-30T14:28:19.759Z,18.67
2023-01-30T14:31:01.792Z,16.55
2023-01-30T14:33:34.161Z,15.52
2023-01-30T14:36:07.609Z,13.27
2023-01-30T14:38:36.482Z,21.85
2023-01-30T14:41:03.866Z,13.73
2023-01-30T14:43:43.269Z,17.15
2023-01-30T14:46:23.471Z,18.20
2023-01-30T14:49:07.317Z,14.25
2023-01-30T14:51:40.458Z,16.67
2023-01-30T14:54:14.908Z,18.70
2023-01-30T14:56:54.878Z,20.00
2023-01-30T14:59:24.857Z,18.02
2023-01-30T15:02:12.465Z,18.27
2023-01-30T15:04:42.846Z,16.45
2023-01-30T15:07:19.485Z,15.50
2023-01-30T15:09:57.688Z,19.23
2023-01-30T15:12:39.823Z,16.60
2023-01-30T15:15:26.247Z,18.60
2023-01-30T15:18:29.434Z,17.67
2023-01-30T15:21:18.379Z,17.45
2023-01-30T15:24:04.275Z,17.98
2023-01-30T15:27:09.587Z,17.75
2023-01-30T15:30:02.058Z,14.25
2023-01-30T15:32:32.005Z,13.07
2023-01-30T15:35:12.400Z,17.60
2023-01-30T15:37:48.957Z,15.18
2023-01-30T15:40:16.053Z,19.00
2023-01-30T15:43:07.535Z,22.17
2023-01-30T15:45:57.237Z,15.90
2023-01-30T15:48:30.138Z,17.30
2023-01-30T15:51:00.228Z,18.10
2023-01-30T15:53:42.189Z,17.77
2023-01-30T15:56:12.176Z,13.82
2023-01-30T15:58:47.666Z,21.13
2023-01-30T16:01:23.651Z,14.95
2023-01-30T16:03:53.464Z,17.98
2023-01-30T16:06:32.957Z,23.75
2023-01-30T16:09:20.249Z,22.13
2023-01-30T16:11:47.790Z,19.75
2023-01-30T16:14:18.003Z,16.70
2023-01-30T16:16:48.964Z,20.40
2023-01-30T16:19:29.754Z,23.38
2023-01-30T16:22:05.570Z,20.67
2023-01-30T16:24:36.063Z,16.55
2023-01-30T16:27:07.514Z,15.63
2023-01-30T16:29:53.819Z,22.90
2023-01-30T16:32:30.327Z,19.40
2023-01-30T16:35:27.536Z,19.25
2023-01-30T16:38:00.128Z,20.15
2023-01-30T16:40:42.629Z,22.35
2023-01-30T16:43:21.824Z,19.50
2023-01-30T16:45:55.462Z,19.77
2023-01-30T16:48:33.539Z,18.50
2023-01-30T16:51:00.655Z,20.10
2023-01-30T16:53:31.724Z,17.13
2023-01-30T16:56:14.785Z,21.58
2023-01-30T16:58:47.826Z,17.20
2023-01-30T17:01:15.645Z,14.75
2023-01-30T17:03:49.350Z,23.75
2023-01-30T17:06:25.877Z,22.35
2023-01-30T17:09:02.445Z,20.50
2023-01-30T17:11:42.607Z,19.33
2023-01-30T17:14:23.070Z,15.63
2023-01-30T17:17:12.708Z,17.73
2023-01-30T17:19:46.968Z,14.80
2023-01-30T17:22:27.210Z,16.48
2023-01-30T17:25:02.214Z,21.17
2023-01-30T17:27:30.779Z,24.77
2023-01-30T17:30:04.620Z,21.38
2023-01-30T17:32:33.030Z,23.88
2023-01-30T17:35:04.192Z,13.90
2023-01-30T17:37:32.420Z,20.67
2023-01-30T17:40:01.178Z,13.57
2023-01-30T17:42:28.353Z,23.98
2023-01-30T17:44:56.954Z,18.85
2023-01-30T17:47:25.502Z,20.38
2023-01-30T17:49:55.905Z,21.70
2023-01-30T17:52:22.954Z,21.65
2023-01-30T17:55:14.856Z,19.23
2023-01-30T17:57:44.383Z,16.15
2023-01-30T18:00:22.263Z,14.75
2023-01-30T18:02:49.579Z,19.30
2023-01-30T18:05:16.626Z,18.83
2023-01-30T18:07:45.223Z,25.83
2023-01-30T18:10:16.497Z,19.35
2023-01-30T18:12:45.476Z,27.55
2023-01-30T18:15:17.750Z,14.65
2023-01-30T18:17:49.697Z,18.73
2023-01-30T18:20:19.548Z,16.05
2023-01-30T18:22:47.141Z,16.75
2023-01-30T18:25:15.339Z,17.77
2023-01-30T18:27:44.259Z,14.82
2023-01-30T18:30:17.417Z,23.98
2023-01-30T18:32:52.481Z,12.65
2023-01-30T18:35:21.604Z,20.80
2023-01-30T18:37:49.988Z,24.83
2023-01-30T18:40:18.495Z,18.00
2023-01-30T18:42:48.600Z,17.38
2023-01-30T18:45:15.692Z,19.52
2023-01-30T18:47:42.637Z,18.85
2023-01-30T18:50:10.101Z,23.27
2023-01-30T18:52:37.119Z,25.42
2023-01-30T18:55:04.334Z,18.27
2023-01-30T18:57:33.183Z,18.52
2023-01-30T19:00:00.159Z,23.73
2023-01-30T19:02:30.218Z,23.15
2023-01-30T19:04:57.161Z,15.85
2023-01-30T19:07:24.115Z,32.65
2023-01-30T19:09:51.173Z,21.65
2023-01-30T19:12:36.665Z,21.40
2023-01-30T19:15:04.048Z,21.98
2023-01-30T19:17:32.447Z,28.25
2023-01-30T19:20:02.025Z,26.45
2023-01-30T19:22:30.730Z,19.05
2023-01-30T19:25:00.674Z,19.38
2023-01-30T19:27:27.752Z,21.90
2023-01-30T19:29:56.360Z,27.65
2023-01-30T19:32:23.268Z,31.33
2023-01-30T19:34:51.082Z,24.60
2023-01-30T19:37:18.587Z,16.73
2023-01-30T19:39:46.978Z,23.85
2023-01-30T19:42:16.453Z,19.80
2023-01-30T19:44:43.464Z,16.75
2023-01-30T19:47:10.567Z,25.15
2023-01-30T19:49:37.578Z,23.25
2023-01-30T19:52:04.812Z,22.42
2023-01-30T19:54:32.330Z,27.92
2023-01-30T19:57:00.038Z,27.38
2023-01-30T19:59:27.040Z,15.23
2023-01-30T20:01:54.145Z,20.73
2023-01-30T20:04:22.417Z,26.15
2023-01-30T20:06:50.012Z,23.70
2023-01-30T20:09:17.723Z,26.13
2023-01-30T20:11:44.796Z,21.45
2023-01-30T20:14:12.515Z,20.45
2023-01-30T20:16:40.837Z,27.60
2023-01-30T20:19:13.948Z,25.98
2023-01-30T20:21:43.047Z,20.02
2023-01-30T20:24:13.069Z,16.95
2023-01-30T20:26:40.878Z,21.02
2023-01-30T20:29:09.918Z,29.30
2023-01-30T20:31:39.122Z,28.05
2023-01-30T20:34:08.586Z,16.00
2023-01-30T20:36:35.673Z,21.88
2023-01-30T20:39:04.508Z,22.38
2023-01-30T20:41:33.574Z,25.23
2023-01-30T20:44:00.863Z,31.50
2023-01-30T20:46:39.683Z,23.80
2023-01-30T20:49:08.056Z,23.83
2023-01-30T20:51:35.217Z,35.90
2023-01-30T20:54:05.323Z,20.73
2023-01-30T20:56:35.074Z,35.78
2023-01-30T20:59:03.890Z,26.85
2023-01-30T21:01:31.155Z,32.92
2023-01-30T21:03:58.193Z,21.95
2023-01-30T21:06:37.112Z,25.42
2023-01-30T21:09:33.032Z,24.65
2023-01-30T21:12:04.447Z,25.48
2023-01-30T21:14:31.428Z,21.42
2023-01-30T21:16:58.456Z,29.85
2023-01-30T21:19:25.419Z,28.73
2023-01-30T21:21:55.179Z,26.33
2023-01-30T21:24:25.182Z,22.35
2023-01-30T21:26:53.206Z,25.58
2023-01-30T21:29:23.331Z,20.70
2023-01-30T21:31:51.248Z,26.38
2023-01-30T21:34:22.151Z,30.33
2023-01-30T21:37:09.297Z,20.65
2023-01-30T21:39:54.640Z,20.90
2023-01-30T21:42:40.493Z,15.32
2023-01-30T21:45:08.746Z,27.83
2023-01-30T21:47:35.937Z,27.67
2023-01-30T21:50:03.120Z,22.77
2023-01-30T21:52:34.686Z,25.30
2023-01-30T21:55:01.632Z,28.10
2023-01-30T21:57:28.762Z,23.02
2023-01-30T21:59:55.755Z,43.13
2023-01-30T22:02:22.940Z,34.35
2023-01-30T22:04:50.079Z,29.45
2023-01-30T22:07:17.101Z,26.63
2023-01-30T22:09:44.052Z,32.25
2023-01-30T22:12:11.079Z,29.80
2023-01-30T22:14:38.667Z,32.00
2023-01-30T22:17:06.196Z,25.88
2023-01-30T22:19:35.783Z,29.10
2023-01-30T22:22:03.800Z,33.10
2023-01-30T22:24:30.916Z,34.00
2023-01-30T22:26:58.463Z,33.88
2023-01-30T22:29:25.377Z,42.88
2023-01-30T22:31:55.514Z,29.88
2023-01-30T22:34:22.707Z,34.75
2023-01-30T22:36:49.721Z,27.70
2023-01-30T22:39:16.853Z,30.75
2023-01-30T22:41:43.824Z,28.13
2023-01-30T22:44:11.088Z,29.58
2023-01-30T22:46:39.709Z,32.55
2023-01-30T22:49:08.440Z,40.58
2023-01-30T22:51:43.198Z,30.25
2023-01-30T22:54:16.086Z,35.38
2023-01-30T22:56:46.104Z,30.27
2023-01-30T22:59:13.732Z,29.92
2023-01-30T23:01:47.961Z,38.28
2023-01-30T23:04:23.971Z,32.70
2023-01-30T23:06:52.937Z,32.25
2023-01-30T23:09:23.372Z,34.92
2023-01-30T23:12:15.318Z,33.88
2023-01-30T23:14:43.032Z,29.63
2023-01-30T23:17:29.057Z,31.77
2023-01-30T23:19:58.875Z,28.63
2023-01-30T23:22:25.837Z,39.25
2023-01-30T23:24:52.852Z,32.03
2023-01-30T23:27:21.663Z,34.08
2023-01-30T23:32:58.969Z,39.03
2023-01-30T23:35:26.031Z,26.80
2023-01-30T23:38:11.504Z,28.15
2023-01-30T23:40:38.755Z,37.05
2023-01-30T23:43:15.099Z,35.38
2023-01-30T23:45:42.624Z,28.58
2023-01-30T23:48:10.182Z,38.97
2023-01-30T23:50:38.778Z,39.15
2023-01-30T23:53:09.131Z,44.63
2023-01-30T23:55:52.309Z,45.05
2023-01-30T23:58:19.325Z,33.13
